Time;durP1;ratioP1;P1;durP2;ratioP2;P2;SDS_P1;SDS_P2;PMS_P1;PMS_P2;Temp;Humidity;BMP_temperature;BMP_pressure;BME280_temperature;BME280_humidity;BME280_pressure;Samples;Min_cycle;Max_cycle;Signal;HPM_P1;HPM_P2
2023/08/31 00:00:43;;;;;;;4.13;1.85;;;10.60;99.90;;;;;;4906228;29;20052;-65
2023/08/31 00:03:09;;;;;;;7.60;2.15;;;10.60;99.90;;;;;;4921419;29;20054;-64
2023/08/31 00:05:43;;;;;;;4.15;2.05;;;10.60;99.90;;;;;;4921923;29;20035;-65
2023/08/31 00:08:11;;;;;;;5.53;1.80;;;10.60;99.90;;;;;;4924086;29;20479;-64
2023/08/31 00:10:37;;;;;;;4.20;1.95;;;10.50;99.90;;;;;;4924319;29;20047;-64
2023/08/31 00:13:04;;;;;;;5.30;1.80;;;10.50;99.90;;;;;;4922996;29;20490;-65
2023/08/31 00:15:32;;;;;;;4.60;1.80;;;10.40;99.90;;;;;;4906477;29;20039;-64
2023/08/31 00:17:58;;;;;;;6.53;1.48;;;10.50;99.90;;;;;;4921584;29;20198;-64
2023/08/31 00:20:25;;;;;;;5.28;1.52;;;10.50;99.90;;;;;;4906251;29;20039;-65
2023/08/31 00:22:50;;;;;;;3.78;1.27;;;10.30;99.90;;;;;;4923613;29;20055;-64
2023/08/31 00:25:17;;;;;;;3.60;0.98;;;10.40;99.90;;;;;;4922413;29;20369;-64
2023/08/31 00:27:43;;;;;;;3.38;0.98;;;10.30;99.90;;;;;;4906234;29;20541;-64
2023/08/31 00:30:11;;;;;;;3.92;1.00;;;10.50;99.90;;;;;;4921592;29;20048;-64
2023/08/31 00:32:39;;;;;;;3.95;1.27;;;10.40;99.90;;;;;;4906481;29;20032;-65
2023/08/31 00:35:05;;;;;;;2.13;0.98;;;10.20;99.90;;;;;;4923109;29;20106;-62
2023/08/31 00:37:31;;;;;;;3.88;0.90;;;10.40;99.90;;;;;;4922738;29;20047;-65
2023/08/31 00:39:57;;;;;;;3.50;0.80;;;10.20;99.90;;;;;;4923162;29;20043;-63
2023/08/31 00:42:24;;;;;;;4.45;0.80;;;10.30;99.90;;;;;;4905420;29;20268;-64
2023/08/31 00:44:50;;;;;;;2.60;0.85;;;10.20;99.90;;;;;;4905928;29;20086;-63
2023/08/31 00:47:16;;;;;;;3.33;0.95;;;10.30;99.90;;;;;;4922640;29;20130;-64
2023/08/31 00:49:42;;;;;;;4.07;0.80;;;10.10;99.90;;;;;;4925258;29;20342;-63
2023/08/31 00:52:08;;;;;;;5.05;0.95;;;10.00;99.90;;;;;;4906889;29;20669;-64
2023/08/31 00:54:35;;;;;;;2.97;0.80;;;10.10;99.90;;;;;;4921418;29;20549;-63
2023/08/31 00:57:01;;;;;;;3.30;0.80;;;10.10;99.90;;;;;;4920854;29;20039;-63
2023/08/31 00:59:26;;;;;;;4.95;1.15;;;10.00;99.90;;;;;;4905862;29;20688;-62
2023/08/31 01:02:13;;;;;;;4.80;1.17;;;10.00;99.90;;;;;;4910899;29;20554;-63
2023/08/31 01:04:46;;;;;;;5.32;1.08;;;10.00;99.90;;;;;;4923206;28;20126;-63
2023/08/31 01:07:30;;;;;;;6.80;1.35;;;9.80;99.90;;;;;;4926902;29;20044;-65
2023/08/31 01:10:09;;;;;;;2.58;1.05;;;9.90;99.90;;;;;;4926240;29;20730;-64
2023/08/31 01:12:44;;;;;;;6.40;1.40;;;9.90;99.90;;;;;;4925697;29;20636;-64
2023/08/31 01:15:15;;;;;;;7.95;1.85;;;10.00;99.90;;;;;;4926352;29;20047;-64
2023/08/31 01:17:46;;;;;;;4.28;1.90;;;9.90;99.90;;;;;;4924308;29;20056;-65
2023/08/31 01:20:16;;;;;;;4.28;1.90;;;10.00;99.90;;;;;;4920643;29;20043;-64
2023/08/31 01:23:03;;;;;;;8.32;2.45;;;9.90;99.90;;;;;;4917514;29;20040;-64
2023/08/31 01:25:30;;;;;;;6.10;3.00;;;10.00;99.90;;;;;;4916186;29;20040;-65
2023/08/31 01:27:58;;;;;;;4.03;2.83;;;9.80;99.90;;;;;;4901248;29;20040;-64
2023/08/31 01:30:24;;;;;;;8.30;3.08;;;9.90;99.90;;;;;;4919014;29;20044;-65
2023/08/31 01:32:49;;;;;;;9.57;2.95;;;10.00;99.90;;;;;;4900383;29;20319;-64
2023/08/31 01:35:18;;;;;;;6.13;3.22;;;9.80;99.90;;;;;;4916708;29;20273;-65
2023/08/31 01:37:59;;;;;;;8.68;3.20;;;10.00;99.90;;;;;;4899751;29;20106;-64
2023/08/31 01:40:32;;;;;;;7.22;3.38;;;9.90;99.90;;;;;;4916254;29;20039;-64
2023/08/31 01:43:00;;;;;;;8.80;3.20;;;9.90;99.90;;;;;;4917858;29;20126;-65
2023/08/31 01:45:26;;;;;;;7.05;3.67;;;9.80;99.90;;;;;;4899733;29;20050;-63
2023/08/31 01:47:52;;;;;;;8.27;3.60;;;9.90;99.90;;;;;;4916315;29;20051;-64
2023/08/31 01:50:18;;;;;;;6.35;3.10;;;10.00;99.90;;;;;;4916356;29;20078;-64
2023/08/31 01:52:44;;;;;;;7.93;3.17;;;10.00;99.90;;;;;;4916075;29;20510;-63
2023/08/31 01:55:10;;;;;;;5.45;3.28;;;9.90;99.90;;;;;;4916070;29;20147;-65
2023/08/31 01:57:35;;;;;;;8.55;3.67;;;10.00;99.90;;;;;;4899490;29;20414;-65
2023/08/31 02:00:01;;;;;;;5.97;3.22;;;9.80;99.90;;;;;;4915828;29;20479;-65
2023/08/31 02:02:27;;;;;;;12.38;3.90;;;9.80;99.90;;;;;;4917029;29;20040;-64
2023/08/31 02:04:53;;;;;;;9.23;3.65;;;9.90;99.90;;;;;;4899713;29;21725;-64
2023/08/31 02:07:19;;;;;;;9.95;3.90;;;9.70;99.90;;;;;;4915489;29;20039;-64
2023/08/31 02:09:44;;;;;;;8.10;3.60;;;9.70;99.90;;;;;;4918284;29;20152;-64
2023/08/31 02:12:10;;;;;;;7.32;3.20;;;9.80;99.90;;;;;;4883963;29;20130;-64
2023/08/31 02:14:36;;;;;;;7.75;3.75;;;9.70;99.90;;;;;;4915087;29;20368;-64
2023/08/31 02:17:02;;;;;;;10.23;3.97;;;9.70;99.90;;;;;;4913764;29;20151;-64
2023/08/31 02:19:28;;;;;;;7.80;3.50;;;9.60;99.90;;;;;;4899751;29;20420;-64
2023/08/31 02:21:54;;;;;;;10.75;3.63;;;9.60;99.90;;;;;;4917056;29;20462;-64
2023/08/31 02:24:20;;;;;;;8.25;3.30;;;9.90;99.90;;;;;;4900656;29;20035;-65
2023/08/31 02:26:46;;;;;;;7.90;3.80;;;9.60;99.90;;;;;;4898393;29;20039;-65
2023/08/31 02:29:11;;;;;;;7.57;3.78;;;9.60;99.90;;;;;;4915198;29;20119;-64
2023/08/31 02:31:41;;;;;;;11.32;4.53;;;9.50;99.90;;;;;;4898959;29;20039;-65
2023/08/31 02:34:07;;;;;;;7.18;4.07;;;9.70;99.90;;;;;;4900343;29;20076;-65
2023/08/31 02:36:32;;;;;;;12.40;4.13;;;9.50;99.90;;;;;;4899665;29;20479;-65
2023/08/31 02:38:58;;;;;;;7.60;3.50;;;9.50;99.90;;;;;;4914578;29;20580;-65
2023/08/31 02:41:24;;;;;;;7.82;3.60;;;9.60;99.90;;;;;;4899157;29;20562;-64
2023/08/31 02:43:52;;;;;;;9.02;3.85;;;9.50;99.90;;;;;;4914732;29;20276;-65
2023/08/31 02:46:18;;;;;;;9.18;3.63;;;9.40;99.90;;;;;;4914464;29;20139;-64
2023/08/31 02:48:44;;;;;;;9.10;3.72;;;9.40;99.90;;;;;;4883003;29;20047;-65
2023/08/31 02:51:10;;;;;;;8.25;3.03;;;9.40;99.90;;;;;;4920653;29;20208;-64
2023/08/31 02:53:36;;;;;;;6.20;2.90;;;9.60;99.90;;;;;;4898281;29;20122;-64
2023/08/31 02:56:02;;;;;;;6.50;2.92;;;9.50;99.90;;;;;;4914003;29;20159;-64
2023/08/31 02:58:28;;;;;;;9.57;2.90;;;9.40;99.90;;;;;;4913943;29;20288;-64
2023/08/31 03:00:54;;;;;;;4.18;2.00;;;9.40;99.90;;;;;;4914678;29;20854;-64
2023/08/31 03:03:19;;;;;;;8.07;2.70;;;9.50;99.90;;;;;;4917029;29;20568;-64
2023/08/31 03:05:45;;;;;;;6.43;2.22;;;9.70;99.90;;;;;;4918281;29;20042;-65
2023/08/31 03:08:11;;;;;;;6.75;2.55;;;9.50;99.90;;;;;;4898252;29;20087;-65
2023/08/31 03:10:38;;;;;;;6.50;2.63;;;9.70;99.90;;;;;;4898427;29;20130;-64
2023/08/31 03:13:04;;;;;;;6.78;2.28;;;9.50;99.90;;;;;;4913909;29;20059;-65
2023/08/31 03:15:34;;;;;;;5.57;2.65;;;9.50;99.90;;;;;;4913727;29;20043;-64
2023/08/31 03:18:00;;;;;;;7.32;2.42;;;9.50;99.90;;;;;;4914011;29;20135;-64
2023/08/31 03:20:25;;;;;;;4.93;2.55;;;9.50;99.90;;;;;;4914557;29;20048;-64
2023/08/31 03:22:51;;;;;;;6.90;2.30;;;9.60;99.90;;;;;;4914915;29;20123;-65
2023/08/31 03:25:17;;;;;;;6.03;2.30;;;9.70;99.90;;;;;;4913629;29;20137;-65
2023/08/31 03:27:42;;;;;;;4.85;2.28;;;9.70;99.90;;;;;;4897371;29;20047;-65
2023/08/31 03:30:09;;;;;;;4.95;2.08;;;9.70;99.90;;;;;;4914037;29;20616;-64
2023/08/31 03:32:34;;;;;;;6.70;2.60;;;9.70;99.90;;;;;;4900208;29;20106;-65
2023/08/31 03:35:03;;;;;;;7.63;2.53;;;9.70;99.90;;;;;;4913737;29;20044;-64
2023/08/31 03:37:29;;;;;;;4.05;1.65;;;9.70;99.90;;;;;;4897823;29;20407;-64
2023/08/31 03:39:55;;;;;;;7.10;2.20;;;9.70;99.90;;;;;;4913562;29;20040;-63
2023/08/31 03:42:21;;;;;;;7.15;2.17;;;9.60;99.90;;;;;;4914395;29;20123;-65
2023/08/31 03:44:47;;;;;;;6.30;2.05;;;9.40;99.90;;;;;;4881344;29;20418;-64
2023/08/31 03:47:12;;;;;;;6.82;2.15;;;9.50;99.90;;;;;;4915248;29;20612;-65
2023/08/31 03:49:38;;;;;;;6.50;1.55;;;9.70;99.90;;;;;;4913922;29;20067;-64
2023/08/31 03:52:04;;;;;;;5.93;2.20;;;9.60;99.90;;;;;;4913848;29;20305;-64
2023/08/31 03:54:29;;;;;;;6.22;2.10;;;9.70;99.90;;;;;;4913137;29;20071;-65
2023/08/31 03:56:55;;;;;;;6.90;2.00;;;9.70;99.90;;;;;;4913157;29;20063;-64
2023/08/31 03:59:21;;;;;;;4.00;2.03;;;9.70;99.90;;;;;;4914017;29;20437;-64
2023/08/31 04:01:46;;;;;;;5.80;1.73;;;9.60;99.90;;;;;;4913494;29;20046;-64
2023/08/31 04:04:12;;;;;;;7.47;2.00;;;9.40;99.90;;;;;;4914769;29;20043;-65
2023/08/31 04:06:38;;;;;;;6.53;2.58;;;9.50;99.90;;;;;;4897219;29;20126;-64
2023/08/31 04:09:04;;;;;;;5.13;2.13;;;9.60;99.90;;;;;;4897285;29;20317;-64
2023/08/31 04:11:30;;;;;;;6.03;2.45;;;9.40;99.90;;;;;;4899441;29;20086;-64
2023/08/31 04:13:55;;;;;;;9.07;2.85;;;9.60;99.90;;;;;;4897852;29;20154;-64
2023/08/31 04:16:21;;;;;;;8.02;2.80;;;9.30;99.90;;;;;;4896505;29;20058;-64
2023/08/31 04:18:51;;;;;;;9.88;2.88;;;9.50;99.90;;;;;;4881153;29;20446;-65
2023/08/31 04:21:17;;;;;;;5.90;3.05;;;9.30;99.90;;;;;;4913328;29;20050;-65
2023/08/31 04:23:43;;;;;;;7.78;2.92;;;9.60;99.90;;;;;;4897003;29;20050;-65
2023/08/31 04:26:12;;;;;;;6.38;3.05;;;9.40;99.90;;;;;;4865529;29;20043;-65
2023/08/31 04:28:40;;;;;;;7.45;3.65;;;9.50;99.90;;;;;;4912667;29;20255;-65
2023/08/31 04:31:07;;;;;;;5.97;2.90;;;9.50;99.90;;;;;;4912048;29;20269;-64
2023/08/31 04:33:37;;;;;;;5.97;2.83;;;9.40;99.90;;;;;;4897472;29;20605;-64
2023/08/31 04:36:06;;;;;;;6.78;3.00;;;9.40;99.90;;;;;;4912474;29;20114;-64
2023/08/31 04:38:33;;;;;;;6.82;3.08;;;9.50;99.90;;;;;;4912574;29;20048;-65
2023/08/31 04:41:00;;;;;;;6.80;3.95;;;9.50;99.90;;;;;;4897973;29;20130;-64
2023/08/31 04:43:25;;;;;;;6.88;3.92;;;9.50;99.90;;;;;;4914121;29;20046;-64
2023/08/31 04:45:52;;;;;;;5.88;3.42;;;9.70;99.90;;;;;;4913882;29;20051;-64
2023/08/31 04:48:18;;;;;;;9.50;3.55;;;9.70;99.90;;;;;;4881609;29;20134;-65
2023/08/31 04:50:43;;;;;;;7.55;3.83;;;9.70;99.90;;;;;;4914634;29;20303;-65
2023/08/31 04:53:09;;;;;;;8.55;3.50;;;9.80;99.90;;;;;;4896777;29;20378;-64
2023/08/31 04:55:35;;;;;;;8.75;3.88;;;9.90;99.90;;;;;;4896582;29;20039;-65
2023/08/31 04:58:01;;;;;;;8.25;3.95;;;9.70;99.90;;;;;;4896777;29;20461;-65
2023/08/31 05:00:26;;;;;;;9.80;4.13;;;9.60;99.90;;;;;;4912577;29;20203;-64
2023/08/31 05:02:52;;;;;;;7.03;4.07;;;9.80;99.90;;;;;;4881259;29;20054;-64
2023/08/31 05:05:20;;;;;;;8.65;4.53;;;9.90;99.90;;;;;;4880907;29;20090;-64
2023/08/31 05:07:46;;;;;;;6.97;4.57;;;9.90;99.90;;;;;;4895890;29;20053;-65
2023/08/31 05:10:12;;;;;;;14.35;5.18;;;9.60;99.90;;;;;;4912388;29;20418;-65
2023/08/31 05:12:38;;;;;;;7.25;4.45;;;9.70;99.90;;;;;;4896255;29;20044;-65
2023/08/31 05:15:04;;;;;;;9.07;4.38;;;9.60;99.90;;;;;;4896834;29;20082;-64
2023/08/31 05:17:30;;;;;;;11.13;4.80;;;9.70;99.90;;;;;;4911935;29;20064;-65
2023/08/31 05:19:56;;;;;;;8.10;4.97;;;9.70;99.90;;;;;;4920009;29;20105;-64
2023/08/31 05:22:22;;;;;;;9.18;4.80;;;9.80;99.90;;;;;;4914677;29;20529;-65
2023/08/31 05:24:48;;;;;;;6.60;4.15;;;9.90;99.90;;;;;;4895689;29;20490;-64
2023/08/31 05:27:14;;;;;;;9.27;5.00;;;9.70;99.90;;;;;;4896740;29;20111;-64
2023/08/31 05:29:40;;;;;;;11.85;5.05;;;9.90;99.90;;;;;;4913764;29;20062;-65
2023/08/31 05:32:06;;;;;;;10.40;5.07;;;9.90;99.90;;;;;;4898007;29;20811;-64
2023/08/31 05:34:34;;;;;;;9.90;5.35;;;10.10;99.90;;;;;;4882025;29;20395;-64
2023/08/31 05:37:00;;;;;;;10.40;5.40;;;10.30;99.90;;;;;;4913253;29;20063;-64
2023/08/31 05:39:26;;;;;;;11.93;6.00;;;10.30;99.90;;;;;;4913204;29;20055;-63
2023/08/31 05:41:52;;;;;;;7.05;4.82;;;10.40;99.90;;;;;;4896095;29;20047;-63
2023/08/31 05:44:17;;;;;;;8.75;4.47;;;10.70;99.90;;;;;;4912315;29;20244;-63
2023/08/31 05:46:48;;;;;;;6.45;3.42;;;10.80;99.90;;;;;;4914833;28;20078;-64
2023/08/31 05:49:23;;;;;;;5.95;2.80;;;11.00;99.90;;;;;;4913089;29;20055;-65
2023/08/31 05:51:50;;;;;;;5.63;2.30;;;11.40;99.90;;;;;;4912494;29;20106;-64
2023/08/31 05:54:16;;;;;;;7.25;1.90;;;11.50;99.90;;;;;;4899788;29;20043;-65
2023/08/31 05:56:42;;;;;;;5.20;1.45;;;11.80;99.90;;;;;;4900559;29;20503;-64
2023/08/31 05:59:07;;;;;;;5.35;1.65;;;12.00;99.90;;;;;;4900141;29;20167;-65
2023/08/31 06:01:36;;;;;;;3.80;1.45;;;12.30;99.90;;;;;;4898957;29;20066;-64
2023/08/31 06:04:03;;;;;;;7.00;1.40;;;12.30;99.90;;;;;;4915133;29;20059;-64
2023/08/31 06:06:29;;;;;;;4.85;1.50;;;12.50;99.90;;;;;;4915460;29;20092;-64
2023/08/31 06:08:54;;;;;;;3.88;0.82;;;12.80;99.90;;;;;;4898163;29;20687;-65
2023/08/31 06:11:21;;;;;;;3.83;0.70;;;12.80;99.90;;;;;;4916287;29;20051;-64
2023/08/31 06:13:47;;;;;;;2.47;0.50;;;13.00;99.90;;;;;;4919845;29;20050;-65
2023/08/31 06:16:12;;;;;;;4.22;0.77;;;13.00;99.90;;;;;;4905045;29;20048;-65
2023/08/31 06:18:38;;;;;;;3.38;0.77;;;13.10;99.90;;;;;;4915703;29;20390;-64
2023/08/31 06:21:04;;;;;;;3.45;0.50;;;13.30;99.90;;;;;;4899596;29;20133;-65
2023/08/31 06:23:30;;;;;;;3.47;0.60;;;13.40;99.90;;;;;;4915091;29;20047;-64
2023/08/31 06:25:56;;;;;;;3.58;0.63;;;13.70;99.90;;;;;;4915182;29;20488;-65
2023/08/31 06:28:21;;;;;;;3.33;0.40;;;13.60;99.90;;;;;;4898872;29;20039;-64
2023/08/31 06:30:47;;;;;;;2.95;0.50;;;13.80;99.90;;;;;;4922428;29;20088;-65
2023/08/31 06:33:17;;;;;;;3.28;0.50;;;13.90;99.90;;;;;;4922445;29;20043;-65
2023/08/31 06:35:48;;;;;;;4.13;0.50;;;14.00;99.90;;;;;;4920500;29;20055;-65
2023/08/31 06:38:14;;;;;;;4.50;0.70;;;14.20;99.90;;;;;;4921893;29;20498;-65
2023/08/31 06:40:41;;;;;;;2.85;0.40;;;14.50;99.90;;;;;;4922228;29;20135;-65
2023/08/31 06:43:07;;;;;;;3.63;0.50;;;14.60;99.90;;;;;;4921241;29;20098;-65
2023/08/31 06:45:34;;;;;;;2.75;0.45;;;14.70;99.90;;;;;;4921621;29;20047;-64
2023/08/31 06:47:59;;;;;;;4.10;0.50;;;15.00;99.90;;;;;;4889772;29;20461;-64
2023/08/31 06:50:25;;;;;;;4.57;0.40;;;15.20;99.90;;;;;;4922215;29;20063;-63
2023/08/31 06:52:51;;;;;;;2.40;0.65;;;15.40;99.90;;;;;;4921788;29;20118;-65
2023/08/31 06:55:16;;;;;;;3.03;0.47;;;15.50;99.90;;;;;;4920894;29;20052;-64
2023/08/31 06:57:43;;;;;;;4.13;0.50;;;15.50;99.90;;;;;;4923120;29;20037;-63
2023/08/31 07:00:11;;;;;;;2.65;0.30;;;15.70;99.90;;;;;;4920569;29;20130;-63
2023/08/31 07:02:39;;;;;;;3.90;0.30;;;15.70;99.90;;;;;;4927272;29;20609;-63
2023/08/31 07:05:05;;;;;;;4.63;0.30;;;15.80;99.90;;;;;;4906049;29;20372;-63
2023/08/31 07:07:30;;;;;;;3.72;0.40;;;16.00;99.90;;;;;;4923182;29;20039;-63
2023/08/31 07:09:56;;;;;;;2.88;0.60;;;16.10;99.90;;;;;;4922777;29;20047;-65
2023/08/31 07:12:22;;;;;;;5.78;0.40;;;16.30;99.90;;;;;;4921801;29;20055;-64
2023/08/31 07:14:47;;;;;;;2.17;0.30;;;16.50;99.90;;;;;;4921933;29;20048;-65
2023/08/31 07:17:13;;;;;;;3.42;0.30;;;16.70;99.90;;;;;;4923094;29;20046;-64
2023/08/31 07:19:39;;;;;;;2.30;0.30;;;16.80;99.90;;;;;;4923313;29;20051;-64
2023/08/31 07:22:06;;;;;;;7.63;0.50;;;17.00;99.90;;;;;;4921730;29;20044;-65
2023/08/31 07:24:32;;;;;;;4.20;0.25;;;17.20;99.90;;;;;;4923864;29;20264;-64
2023/08/31 07:26:57;;;;;;;3.78;0.28;;;17.50;99.90;;;;;;4921122;29;20047;-64
2023/08/31 07:29:23;;;;;;;3.75;0.20;;;17.40;99.90;;;;;;4922371;29;20577;-64
2023/08/31 07:31:49;;;;;;;2.33;0.20;;;17.50;99.90;;;;;;4905517;29;20459;-64
2023/08/31 07:34:14;;;;;;;3.00;0.30;;;17.50;99.90;;;;;;4904365;29;20348;-64
2023/08/31 07:36:40;;;;;;;2.58;0.30;;;17.70;99.90;;;;;;4919719;29;20070;-63
2023/08/31 07:39:07;;;;;;;3.45;0.20;;;17.80;99.90;;;;;;4920880;29;20042;-63
2023/08/31 07:41:32;;;;;;;4.57;0.30;;;18.10;99.90;;;;;;4907608;29;20083;-64
2023/08/31 07:43:58;;;;;;;0.93;0.20;;;18.20;99.90;;;;;;4890081;29;20475;-63
2023/08/31 07:46:24;;;;;;;5.30;0.30;;;18.40;99.90;;;;;;4922570;29;20138;-63
2023/08/31 07:48:50;;;;;;;2.65;0.10;;;18.50;99.90;;;;;;4920325;29;20473;-63
2023/08/31 07:51:16;;;;;;;2.30;0.20;;;18.70;99.90;;;;;;4904827;29;20040;-63
2023/08/31 07:53:42;;;;;;;2.80;0.20;;;18.80;99.90;;;;;;4906363;29;20048;-64
2023/08/31 07:56:08;;;;;;;2.03;0.20;;;18.40;99.90;;;;;;4921267;29;20405;-64
2023/08/31 07:58:33;;;;;;;2.17;0.20;;;18.50;99.90;;;;;;4923389;29;20077;-64
2023/08/31 08:00:59;;;;;;;2.63;0.10;;;18.50;99.90;;;;;;4923120;29;20044;-64
2023/08/31 08:03:25;;;;;;;1.83;0.10;;;18.20;99.90;;;;;;4921474;29;20040;-64
2023/08/31 08:05:51;;;;;;;1.83;0.10;;;17.90;99.90;;;;;;4922159;29;20426;-64
2023/08/31 08:08:17;;;;;;;1.38;0.10;;;17.90;99.90;;;;;;4921745;29;20134;-64
2023/08/31 08:10:43;;;;;;;2.55;0.35;;;18.00;99.90;;;;;;4924379;29;20473;-64
2023/08/31 08:13:12;;;;;;;2.20;0.10;;;18.00;99.90;;;;;;4906898;29;20051;-65
2023/08/31 08:15:38;;;;;;;2.88;0.28;;;18.30;99.90;;;;;;4889548;29;20079;-64
2023/08/31 08:18:04;;;;;;;1.83;0.10;;;18.40;99.90;;;;;;4905894;29;20616;-63
2023/08/31 08:20:29;;;;;;;3.97;0.28;;;18.60;99.90;;;;;;4889202;29;20216;-66
2023/08/31 08:22:57;;;;;;;2.10;0.13;;;18.90;99.90;;;;;;4921759;29;20111;-65
2023/08/31 08:25:23;;;;;;;2.35;0.10;;;19.30;99.90;;;;;;4907736;29;20054;-64
2023/08/31 08:27:49;;;;;;;2.05;0.20;;;19.40;99.90;;;;;;4924040;29;20410;-64
2023/08/31 08:30:15;;;;;;;2.53;0.20;;;19.10;98.00;;;;;;4921547;29;20055;-63
2023/08/31 08:32:41;;;;;;;1.23;0.10;;;19.30;99.90;;;;;;4922412;29;20102;-64
2023/08/31 08:35:08;;;;;;;1.73;0.20;;;19.40;99.90;;;;;;4924106;28;20032;-63
2023/08/31 08:37:34;;;;;;;3.50;0.28;;;18.90;99.90;;;;;;4924628;29;20490;-62
2023/08/31 08:40:00;;;;;;;2.75;0.10;;;18.30;99.90;;;;;;4923836;29;20039;-65
2023/08/31 08:42:26;;;;;;;1.50;0.20;;;17.70;99.90;;;;;;4921473;29;20043;-65
2023/08/31 08:44:52;;;;;;;2.28;0.20;;;17.30;99.90;;;;;;4918802;29;20046;-65
2023/08/31 08:47:18;;;;;;;1.33;0.10;;;17.00;99.90;;;;;;4905984;29;20083;-63
2023/08/31 08:49:44;;;;;;;2.47;0.20;;;16.80;99.90;;;;;;4922020;29;20082;-64
2023/08/31 08:52:11;;;;;;;1.88;0.10;;;16.90;99.90;;;;;;4905797;29;20142;-64
2023/08/31 08:54:38;;;;;;;2.53;0.20;;;17.60;99.90;;;;;;4921069;29;20050;-65
2023/08/31 08:57:04;;;;;;;3.28;0.20;;;18.40;99.90;;;;;;4905310;29;20047;-64
2023/08/31 08:59:33;;;;;;;2.30;0.20;;;19.10;99.90;;;;;;4920580;29;20063;-65
2023/08/31 09:01:59;;;;;;;1.20;0.10;;;19.60;99.90;;;;;;4921112;29;20130;-64
2023/08/31 09:04:24;;;;;;;1.80;0.20;;;19.90;86.00;;;;;;4921894;29;20486;-63
2023/08/31 09:06:51;;;;;;;2.28;0.10;;;20.30;70.70;;;;;;4921035;29;20103;-64
2023/08/31 09:09:17;;;;;;;2.53;0.20;;;20.10;52.80;;;;;;4920124;29;20548;-64
2023/08/31 09:11:43;;;;;;;13.93;0.70;;;19.50;73.20;;;;;;4920274;29;20043;-64
2023/08/31 09:14:16;;;;;;;3.80;0.40;;;18.40;91.70;;;;;;4921289;29;20075;-64
2023/08/31 09:16:45;;;;;;;0.85;0.20;;;18.10;99.90;;;;;;4920344;29;20114;-64
2023/08/31 09:19:24;;;;;;;3.47;0.47;;;18.40;99.90;;;;;;4921065;29;20059;-65
2023/08/31 09:21:52;;;;;;;0.85;0.10;;;19.00;90.40;;;;;;4919650;29;20044;-65
2023/08/31 09:24:18;;;;;;;1.20;0.20;;;19.70;99.00;;;;;;4904867;29;20049;-63
2023/08/31 09:26:51;;;;;;;2.10;0.20;;;20.30;80.50;;;;;;4910808;29;20047;-63
2023/08/31 09:29:17;;;;;;;1.23;0.10;;;20.80;40.80;;;;;;4940187;28;20049;-64
2023/08/31 09:31:45;;;;;;;1.98;0.10;;;20.30;16.80;;;;;;4925931;29;20398;-63
2023/08/31 09:34:11;;;;;;;1.00;0.10;;;19.40;10.70;;;;;;4925350;29;20134;-63
2023/08/31 09:36:38;;;;;;;1.42;0.10;;;18.70;24.70;;;;;;4922846;29;20070;-63
2023/08/31 09:39:05;;;;;;;0.90;0.10;;;18.80;25.70;;;;;;4939034;29;20051;-64
2023/08/31 09:41:31;;;;;;;3.30;0.20;;;19.30;38.40;;;;;;4925676;29;20051;-63
2023/08/31 09:44:18;;;;;;;1.08;0.03;;;19.80;25.20;;;;;;4924111;29;20099;-64
2023/08/31 09:46:44;;;;;;;2.58;0.10;;;19.90;13.20;;;;;;4924501;29;20048;-65
2023/08/31 09:49:14;;;;;;;1.50;0.30;;;20.30;8.60;;;;;;4921004;29;20066;-64
2023/08/31 09:51:44;;;;;;;0.80;0.10;;;20.40;11.30;;;;;;4923501;29;20312;-63
2023/08/31 09:54:13;;;;;;;1.00;0.20;;;20.80;11.10;;;;;;4926544;29;20081;-64
2023/08/31 09:56:42;;;;;;;2.15;0.10;;;21.10;1.00;;;;;;4907754;29;20486;-63
2023/08/31 09:59:09;;;;;;;2.60;0.40;;;21.10;1.00;;;;;;4923755;29;20047;-64
2023/08/31 10:01:35;;;;;;;1.73;0.10;;;20.80;1.00;;;;;;4925560;29;20061;-64
2023/08/31 10:04:03;;;;;;;1.50;0.15;;;20.70;3.10;;;;;;4906954;29;20099;-65
2023/08/31 10:06:31;;;;;;;1.58;0.10;;;21.20;1.70;;;;;;4915502;29;20134;-64
2023/08/31 10:08:56;;;;;;;1.33;0.10;;;21.50;1.00;;;;;;4916809;28;20047;-65
2023/08/31 10:11:25;;;;;;;1.90;0.10;;;21.20;1.00;;;;;;4914614;29;20050;-64
2023/08/31 10:13:53;;;;;;;4.18;0.50;;;19.80;1.00;;;;;;4914958;29;20593;-64
2023/08/31 10:16:20;;;;;;;0.85;0.10;;;17.90;20.80;;;;;;4919297;29;20090;-64
2023/08/31 10:18:45;;;;;;;1.70;0.20;;;16.90;50.90;;;;;;4914756;29;20498;-63
2023/08/31 10:21:15;;;;;;;0.88;0.10;;;16.20;96.40;;;;;;4914853;29;20114;-63
2023/08/31 10:23:45;;;;;;;1.40;0.20;;;15.80;99.90;;;;;;4916615;29;20087;-64
2023/08/31 10:26:11;;;;;;;2.45;0.20;;;15.60;99.90;;;;;;4883437;29;20098;-63
2023/08/31 10:28:42;;;;;;;1.15;0.20;;;15.50;99.90;;;;;;4901387;29;20054;-63
2023/08/31 10:31:19;;;;;;;3.90;0.20;;;15.60;99.90;;;;;;4914976;29;20293;-63
2023/08/31 10:33:45;;;;;;;1.98;0.20;;;15.60;99.90;;;;;;4916044;29;20447;-63
2023/08/31 10:36:18;;;;;;;3.80;0.35;;;15.80;99.90;;;;;;4916319;29;20398;-64
2023/08/31 10:38:56;;;;;;;2.25;0.20;;;16.00;99.90;;;;;;4913540;29;20046;-63
2023/08/31 10:41:22;;;;;;;1.73;0.20;;;16.80;99.90;;;;;;4917116;29;20039;-64
2023/08/31 10:43:59;;;;;;;2.33;0.20;;;17.70;99.90;;;;;;4915834;29;20545;-64
2023/08/31 10:46:38;;;;;;;3.03;0.35;;;18.20;99.90;;;;;;4916424;29;20671;-64
2023/08/31 10:49:10;;;;;;;1.75;0.17;;;18.40;99.90;;;;;;4912960;29;20062;-64
2023/08/31 10:51:41;;;;;;;2.38;0.20;;;18.80;99.90;;;;;;4914335;29;20149;-64
2023/08/31 10:54:12;;;;;;;1.05;0.30;;;19.30;99.90;;;;;;4913780;29;20322;-65
2023/08/31 10:59:52;;;;;;;2.00;0.20;;;19.40;96.80;;;;;;4916201;29;20155;-64
2023/08/31 11:02:36;;;;;;;1.35;0.20;;;18.70;95.20;;;;;;4899175;29;20611;-64
2023/08/31 11:05:12;;;;;;;2.47;0.20;;;18.10;99.90;;;;;;4915827;29;20446;-63
2023/08/31 11:07:40;;;;;;;1.77;0.30;;;17.60;99.90;;;;;;4914309;29;20376;-64
2023/08/31 11:10:19;;;;;;;3.63;0.30;;;17.30;99.90;;;;;;4913953;29;20569;-64
2023/08/31 11:12:49;;;;;;;3.30;0.22;;;17.00;99.90;;;;;;4915406;29;20047;-64
2023/08/31 11:15:18;;;;;;;3.08;0.50;;;16.80;99.90;;;;;;4913931;29;20047;-63
2023/08/31 11:17:44;;;;;;;2.97;0.35;;;16.60;99.90;;;;;;4913432;29;20052;-63
2023/08/31 11:20:15;;;;;;;5.65;0.47;;;16.50;99.90;;;;;;4913445;29;20475;-64
2023/08/31 11:22:41;;;;;;;4.88;0.20;;;16.50;99.90;;;;;;4915706;29;20293;-63
2023/08/31 11:25:09;;;;;;;1.63;0.20;;;16.50;99.90;;;;;;4898001;29;20147;-63
2023/08/31 11:27:34;;;;;;;1.70;0.20;;;16.70;99.90;;;;;;4899317;29;20059;-63
2023/08/31 11:30:00;;;;;;;1.70;0.22;;;17.40;99.90;;;;;;4913475;29;20048;-65
2023/08/31 11:32:26;;;;;;;1.83;0.20;;;18.60;99.90;;;;;;4913627;29;20043;-64
2023/08/31 11:34:52;;;;;;;2.83;0.30;;;19.80;99.90;;;;;;4913644;29;20079;-65
2023/08/31 11:37:20;;;;;;;1.80;0.30;;;21.00;99.90;;;;;;4915029;29;20054;-65
2023/08/31 11:39:53;;;;;;;3.33;0.40;;;21.90;99.20;;;;;;4915563;29;20043;-64
2023/08/31 11:42:20;;;;;;;1.25;0.20;;;22.10;23.10;;;;;;4913573;29;20048;-65
2023/08/31 11:44:47;;;;;;;2.10;0.20;;;21.40;17.80;;;;;;4915910;29;20047;-65
2023/08/31 11:47:14;;;;;;;1.77;0.20;;;20.80;21.50;;;;;;4913035;29;20141;-64
2023/08/31 11:49:41;;;;;;;3.83;0.20;;;20.10;30.50;;;;;;4913966;29;20443;-64
2023/08/31 11:52:09;;;;;;;3.50;0.40;;;19.50;21.90;;;;;;4913727;29;20035;-64
2023/08/31 11:54:38;;;;;;;2.60;0.20;;;19.10;8.70;;;;;;4898107;29;20256;-65
2023/08/31 11:57:07;;;;;;;2.17;0.20;;;18.50;20.60;;;;;;4899411;29;20071;-64
2023/08/31 11:59:36;;;;;;;1.83;0.22;;;18.20;43.00;;;;;;4914402;29;20518;-65
2023/08/31 12:02:04;;;;;;;1.27;0.20;;;17.90;99.90;;;;;;4927821;28;20048;-64
2023/08/31 12:04:30;;;;;;;2.60;0.20;;;17.30;99.90;;;;;;4914669;28;20066;-65
2023/08/31 12:07:04;;;;;;;1.67;0.30;;;17.30;99.90;;;;;;4896791;29;20051;-64
2023/08/31 12:09:30;;;;;;;2.83;0.20;;;17.90;99.90;;;;;;4927230;28;20036;-64
2023/08/31 12:11:56;;;;;;;2.42;0.40;;;18.50;99.90;;;;;;4912638;29;20043;-65
2023/08/31 12:14:23;;;;;;;0.75;0.10;;;19.00;99.90;;;;;;4895953;29;20043;-64
2023/08/31 12:16:50;;;;;;;1.42;0.15;;;19.50;99.90;;;;;;4911796;29;20328;-65
2023/08/31 12:19:17;;;;;;;1.02;0.20;;;19.00;65.10;;;;;;4911795;29;20138;-64
2023/08/31 12:21:44;;;;;;;1.40;0.20;;;18.50;94.10;;;;;;4911629;29;20171;-64
2023/08/31 12:24:11;;;;;;;1.25;0.13;;;18.10;99.90;;;;;;4895978;29;20047;-64
2023/08/31 12:26:37;;;;;;;1.33;0.20;;;17.80;99.90;;;;;;4913697;29;20091;-64
2023/08/31 12:29:06;;;;;;;0.55;0.10;;;18.00;99.90;;;;;;4911615;29;20758;-65
2023/08/31 12:31:33;;;;;;;0.80;0.10;;;18.70;99.90;;;;;;4912267;29;20189;-65
2023/08/31 12:34:00;;;;;;;1.58;0.20;;;19.40;95.70;;;;;;4913717;29;20051;-66
2023/08/31 12:36:26;;;;;;;2.22;0.43;;;19.90;75.00;;;;;;4896175;29;20102;-65
2023/08/31 12:38:52;;;;;;;1.50;0.15;;;20.40;47.00;;;;;;4894819;29;20368;-66
2023/08/31 12:41:19;;;;;;;1.02;0.20;;;20.80;24.40;;;;;;4894930;29;20099;-66
2023/08/31 12:43:45;;;;;;;2.47;0.25;;;21.10;7.90;;;;;;4896266;29;20079;-66
2023/08/31 12:46:13;;;;;;;2.13;0.20;;;21.40;17.20;;;;;;4911647;29;20130;-64
2023/08/31 12:48:39;;;;;;;3.92;0.38;;;21.70;11.70;;;;;;4912146;29;20047;-66
2023/08/31 12:51:05;;;;;;;5.35;0.50;;;20.50;99.90;;;;;;4911298;29;20370;-67
2023/08/31 12:53:31;;;;;;;4.20;0.50;;;19.40;99.90;;;;;;4911315;29;20036;-67